sensor_id;sensor_type;location;lat;lon;timestamp;P1;durP1;ratioP1;P2;durP2;ratioP2
46897;SDS011;32646;50.958;6.258;2023-05-07T00:00:11;11.30;;;7.07;;
46897;SDS011;32646;50.958;6.258;2023-05-07T00:02:39;11.38;;;6.97;;
46897;SDS011;32646;50.958;6.258;2023-05-07T00:05:05;12.27;;;5.85;;
46897;SDS011;32646;50.958;6.258;2023-05-07T00:07:32;9.57;;;5.57;;
46897;SDS011;32646;50.958;6.258;2023-05-07T00:09:59;10.88;;;5.53;;
46897;SDS011;32646;50.958;6.258;2023-05-07T00:12:26;11.30;;;5.38;;
46897;SDS011;32646;50.958;6.258;2023-05-07T00:14:53;9.75;;;5.72;;
46897;SDS011;32646;50.958;6.258;2023-05-07T00:17:20;11.30;;;6.75;;
46897;SDS011;32646;50.958;6.258;2023-05-07T00:19:46;9.57;;;5.82;;
46897;SDS011;32646;50.958;6.258;2023-05-07T00:22:13;9.27;;;5.55;;
46897;SDS011;32646;50.958;6.258;2023-05-07T00:24:39;8.75;;;5.72;;
46897;SDS011;32646;50.958;6.258;2023-05-07T00:27:06;10.15;;;5.72;;
46897;SDS011;32646;50.958;6.258;2023-05-07T00:29:32;9.57;;;6.25;;
46897;SDS011;32646;50.958;6.258;2023-05-07T00:31:59;12.13;;;5.85;;
46897;SDS011;32646;50.958;6.258;2023-05-07T00:34:26;9.68;;;5.60;;
46897;SDS011;32646;50.958;6.258;2023-05-07T00:36:52;11.13;;;5.53;;
46897;SDS011;32646;50.958;6.258;2023-05-07T00:39:19;9.25;;;5.88;;
46897;SDS011;32646;50.958;6.258;2023-05-07T00:41:45;10.73;;;6.45;;
46897;SDS011;32646;50.958;6.258;2023-05-07T00:44:12;10.80;;;6.10;;
46897;SDS011;32646;50.958;6.258;2023-05-07T00:46:39;10.65;;;6.15;;
46897;SDS011;32646;50.958;6.258;2023-05-07T00:49:06;10.00;;;6.25;;
46897;SDS011;32646;50.958;6.258;2023-05-07T00:51:33;11.15;;;5.45;;
46897;SDS011;32646;50.958;6.258;2023-05-07T00:53:59;8.63;;;5.70;;
46897;SDS011;32646;50.958;6.258;2023-05-07T00:56:28;10.63;;;5.38;;
46897;SDS011;32646;50.958;6.258;2023-05-07T00:58:55;8.63;;;5.00;;
46897;SDS011;32646;50.958;6.258;2023-05-07T01:01:22;7.53;;;5.20;;
46897;SDS011;32646;50.958;6.258;2023-05-07T01:03:48;10.18;;;6.00;;
46897;SDS011;32646;50.958;6.258;2023-05-07T01:06:15;11.10;;;6.03;;
46897;SDS011;32646;50.958;6.258;2023-05-07T01:08:44;10.93;;;6.43;;
46897;SDS011;32646;50.958;6.258;2023-05-07T01:11:11;9.35;;;6.32;;
46897;SDS011;32646;50.958;6.258;2023-05-07T01:13:38;10.32;;;6.03;;
46897;SDS011;32646;50.958;6.258;2023-05-07T01:16:06;10.52;;;6.18;;
46897;SDS011;32646;50.958;6.258;2023-05-07T01:18:34;10.45;;;6.30;;
46897;SDS011;32646;50.958;6.258;2023-05-07T01:21:00;9.93;;;5.72;;
46897;SDS011;32646;50.958;6.258;2023-05-07T01:23:29;9.20;;;6.30;;
46897;SDS011;32646;50.958;6.258;2023-05-07T01:25:56;8.60;;;6.10;;
46897;SDS011;32646;50.958;6.258;2023-05-07T01:28:23;10.77;;;6.30;;
46897;SDS011;32646;50.958;6.258;2023-05-07T01:30:52;10.35;;;5.88;;
46897;SDS011;32646;50.958;6.258;2023-05-07T01:33:21;11.65;;;5.53;;
46897;SDS011;32646;50.958;6.258;2023-05-07T01:35:48;8.73;;;5.70;;
46897;SDS011;32646;50.958;6.258;2023-05-07T01:38:19;10.13;;;5.70;;
46897;SDS011;32646;50.958;6.258;2023-05-07T01:40:47;11.63;;;5.95;;
46897;SDS011;32646;50.958;6.258;2023-05-07T01:43:14;9.95;;;6.05;;
46897;SDS011;32646;50.958;6.258;2023-05-07T01:45:41;14.88;;;6.70;;
46897;SDS011;32646;50.958;6.258;2023-05-07T01:48:09;11.48;;;6.25;;
46897;SDS011;32646;50.958;6.258;2023-05-07T01:50:37;12.48;;;6.30;;
46897;SDS011;32646;50.958;6.258;2023-05-07T01:53:04;9.57;;;5.57;;
46897;SDS011;32646;50.958;6.258;2023-05-07T01:55:30;10.23;;;6.05;;
46897;SDS011;32646;50.958;6.258;2023-05-07T01:57:57;14.20;;;5.88;;
46897;SDS011;32646;50.958;6.258;2023-05-07T02:00:23;11.55;;;5.90;;
46897;SDS011;32646;50.958;6.258;2023-05-07T02:02:50;10.02;;;5.90;;
46897;SDS011;32646;50.958;6.258;2023-05-07T02:05:17;10.52;;;6.10;;
46897;SDS011;32646;50.958;6.258;2023-05-07T02:07:43;8.55;;;5.25;;
46897;SDS011;32646;50.958;6.258;2023-05-07T02:10:10;9.60;;;5.40;;
46897;SDS011;32646;50.958;6.258;2023-05-07T02:12:37;10.15;;;6.40;;
46897;SDS011;32646;50.958;6.258;2023-05-07T02:15:03;9.38;;;5.97;;
46897;SDS011;32646;50.958;6.258;2023-05-07T02:17:30;10.82;;;5.70;;
46897;SDS011;32646;50.958;6.258;2023-05-07T02:19:57;9.43;;;5.47;;
46897;SDS011;32646;50.958;6.258;2023-05-07T02:22:23;10.48;;;5.82;;
46897;SDS011;32646;50.958;6.258;2023-05-07T02:24:50;11.88;;;5.93;;
46897;SDS011;32646;50.958;6.258;2023-05-07T02:27:17;11.93;;;6.43;;
46897;SDS011;32646;50.958;6.258;2023-05-07T02:29:43;11.30;;;6.38;;
46897;SDS011;32646;50.958;6.258;2023-05-07T02:32:10;12.07;;;7.05;;
46897;SDS011;32646;50.958;6.258;2023-05-07T02:34:36;11.35;;;7.18;;
46897;SDS011;32646;50.958;6.258;2023-05-07T02:37:03;11.43;;;6.95;;
46897;SDS011;32646;50.958;6.258;2023-05-07T02:39:29;11.68;;;7.38;;
46897;SDS011;32646;50.958;6.258;2023-05-07T02:41:56;10.95;;;6.97;;
46897;SDS011;32646;50.958;6.258;2023-05-07T02:44:23;13.90;;;8.00;;
46897;SDS011;32646;50.958;6.258;2023-05-07T02:46:49;13.80;;;8.43;;
46897;SDS011;32646;50.958;6.258;2023-05-07T02:49:16;13.13;;;7.63;;
46897;SDS011;32646;50.958;6.258;2023-05-07T02:51:42;15.57;;;7.47;;
46897;SDS011;32646;50.958;6.258;2023-05-07T02:54:09;11.40;;;7.85;;
46897;SDS011;32646;50.958;6.258;2023-05-07T02:56:35;13.65;;;7.80;;
46897;SDS011;32646;50.958;6.258;2023-05-07T02:59:02;14.60;;;7.88;;
46897;SDS011;32646;50.958;6.258;2023-05-07T03:01:28;16.77;;;8.00;;
46897;SDS011;32646;50.958;6.258;2023-05-07T03:03:55;14.45;;;7.82;;
46897;SDS011;32646;50.958;6.258;2023-05-07T03:06:21;15.60;;;9.07;;
46897;SDS011;32646;50.958;6.258;2023-05-07T03:08:48;14.02;;;9.07;;
46897;SDS011;32646;50.958;6.258;2023-05-07T03:11:14;15.10;;;8.60;;
46897;SDS011;32646;50.958;6.258;2023-05-07T03:13:41;15.98;;;8.43;;
46897;SDS011;32646;50.958;6.258;2023-05-07T03:16:07;16.90;;;8.85;;
46897;SDS011;32646;50.958;6.258;2023-05-07T03:18:34;15.70;;;8.35;;
46897;SDS011;32646;50.958;6.258;2023-05-07T03:21:01;13.98;;;7.97;;
46897;SDS011;32646;50.958;6.258;2023-05-07T03:23:27;14.63;;;8.18;;
46897;SDS011;32646;50.958;6.258;2023-05-07T03:25:54;14.52;;;7.95;;
46897;SDS011;32646;50.958;6.258;2023-05-07T03:28:20;14.63;;;7.53;;
46897;SDS011;32646;50.958;6.258;2023-05-07T03:30:47;14.93;;;8.02;;
46897;SDS011;32646;50.958;6.258;2023-05-07T03:33:13;15.35;;;7.53;;
46897;SDS011;32646;50.958;6.258;2023-05-07T03:35:40;15.52;;;7.82;;
46897;SDS011;32646;50.958;6.258;2023-05-07T03:38:07;12.27;;;7.07;;
46897;SDS011;32646;50.958;6.258;2023-05-07T03:40:33;13.68;;;7.28;;
46897;SDS011;32646;50.958;6.258;2023-05-07T03:43:00;13.25;;;7.43;;
46897;SDS011;32646;50.958;6.258;2023-05-07T03:45:26;15.27;;;7.88;;
46897;SDS011;32646;50.958;6.258;2023-05-07T03:47:53;15.25;;;7.75;;
46897;SDS011;32646;50.958;6.258;2023-05-07T03:50:20;15.18;;;8.25;;
46897;SDS011;32646;50.958;6.258;2023-05-07T03:52:46;12.98;;;7.40;;
46897;SDS011;32646;50.958;6.258;2023-05-07T03:55:13;22.13;;;8.15;;
46897;SDS011;32646;50.958;6.258;2023-05-07T03:57:39;14.38;;;7.10;;
46897;SDS011;32646;50.958;6.258;2023-05-07T04:00:06;14.13;;;7.93;;
46897;SDS011;32646;50.958;6.258;2023-05-07T04:02:33;14.85;;;8.07;;
46897;SDS011;32646;50.958;6.258;2023-05-07T04:04:59;13.57;;;7.18;;
46897;SDS011;32646;50.958;6.258;2023-05-07T04:07:26;16.15;;;7.63;;
46897;SDS011;32646;50.958;6.258;2023-05-07T04:09:53;12.02;;;6.22;;
46897;SDS011;32646;50.958;6.258;2023-05-07T04:12:19;11.88;;;6.72;;
46897;SDS011;32646;50.958;6.258;2023-05-07T04:14:46;10.98;;;6.60;;
46897;SDS011;32646;50.958;6.258;2023-05-07T04:17:12;11.93;;;6.32;;
46897;SDS011;32646;50.958;6.258;2023-05-07T04:19:39;10.98;;;6.53;;
46897;SDS011;32646;50.958;6.258;2023-05-07T04:22:05;11.10;;;5.65;;
46897;SDS011;32646;50.958;6.258;2023-05-07T04:24:32;11.00;;;6.05;;
46897;SDS011;32646;50.958;6.258;2023-05-07T04:26:59;10.68;;;5.78;;
46897;SDS011;32646;50.958;6.258;2023-05-07T04:29:25;9.05;;;5.32;;
46897;SDS011;32646;50.958;6.258;2023-05-07T04:31:51;11.10;;;6.38;;
46897;SDS011;32646;50.958;6.258;2023-05-07T04:34:18;10.25;;;5.72;;
46897;SDS011;32646;50.958;6.258;2023-05-07T04:36:45;10.70;;;5.60;;
46897;SDS011;32646;50.958;6.258;2023-05-07T04:39:11;9.45;;;5.32;;
46897;SDS011;32646;50.958;6.258;2023-05-07T04:41:38;10.45;;;5.40;;
46897;SDS011;32646;50.958;6.258;2023-05-07T04:44:04;9.25;;;5.45;;
46897;SDS011;32646;50.958;6.258;2023-05-07T04:46:31;9.63;;;5.63;;
46897;SDS011;32646;50.958;6.258;2023-05-07T04:48:57;11.60;;;6.07;;
46897;SDS011;32646;50.958;6.258;2023-05-07T04:51:24;11.18;;;5.50;;
46897;SDS011;32646;50.958;6.258;2023-05-07T04:53:51;10.25;;;6.10;;
46897;SDS011;32646;50.958;6.258;2023-05-07T04:56:17;9.40;;;5.43;;
46897;SDS011;32646;50.958;6.258;2023-05-07T04:58:44;9.95;;;6.03;;
46897;SDS011;32646;50.958;6.258;2023-05-07T05:01:10;10.38;;;6.13;;
46897;SDS011;32646;50.958;6.258;2023-05-07T05:03:37;12.15;;;6.25;;
46897;SDS011;32646;50.958;6.258;2023-05-07T05:06:04;10.52;;;6.50;;
46897;SDS011;32646;50.958;6.258;2023-05-07T05:08:30;9.35;;;5.88;;
46897;SDS011;32646;50.958;6.258;2023-05-07T05:10:57;11.70;;;5.75;;
46897;SDS011;32646;50.958;6.258;2023-05-07T05:13:23;8.32;;;5.88;;
46897;SDS011;32646;50.958;6.258;2023-05-07T05:15:50;10.50;;;6.60;;
46897;SDS011;32646;50.958;6.258;2023-05-07T05:18:16;9.55;;;5.43;;
46897;SDS011;32646;50.958;6.258;2023-05-07T05:20:43;9.88;;;5.63;;
46897;SDS011;32646;50.958;6.258;2023-05-07T05:23:09;11.95;;;5.80;;
46897;SDS011;32646;50.958;6.258;2023-05-07T05:25:36;8.93;;;5.50;;
46897;SDS011;32646;50.958;6.258;2023-05-07T05:28:03;8.43;;;5.32;;
46897;SDS011;32646;50.958;6.258;2023-05-07T05:30:29;8.10;;;4.82;;
46897;SDS011;32646;50.958;6.258;2023-05-07T05:32:56;8.88;;;5.40;;
46897;SDS011;32646;50.958;6.258;2023-05-07T05:35:22;8.63;;;5.78;;
46897;SDS011;32646;50.958;6.258;2023-05-07T05:37:49;10.05;;;5.43;;
46897;SDS011;32646;50.958;6.258;2023-05-07T05:40:15;8.50;;;4.68;;
46897;SDS011;32646;50.958;6.258;2023-05-07T05:42:42;9.32;;;5.43;;
46897;SDS011;32646;50.958;6.258;2023-05-07T05:45:09;7.70;;;4.88;;
46897;SDS011;32646;50.958;6.258;2023-05-07T05:47:35;8.82;;;4.65;;
46897;SDS011;32646;50.958;6.258;2023-05-07T05:50:03;10.60;;;5.70;;
46897;SDS011;32646;50.958;6.258;2023-05-07T05:52:30;8.88;;;5.03;;
46897;SDS011;32646;50.958;6.258;2023-05-07T05:54:56;8.98;;;4.93;;
46897;SDS011;32646;50.958;6.258;2023-05-07T05:57:24;8.63;;;4.93;;
46897;SDS011;32646;50.958;6.258;2023-05-07T05:59:53;7.88;;;4.45;;
46897;SDS011;32646;50.958;6.258;2023-05-07T06:02:20;7.88;;;4.50;;
46897;SDS011;32646;50.958;6.258;2023-05-07T06:04:47;10.02;;;4.45;;
46897;SDS011;32646;50.958;6.258;2023-05-07T06:07:13;9.88;;;4.82;;
46897;SDS011;32646;50.958;6.258;2023-05-07T06:09:40;10.05;;;4.53;;
46897;SDS011;32646;50.958;6.258;2023-05-07T06:12:07;8.18;;;4.28;;
46897;SDS011;32646;50.958;6.258;2023-05-07T06:14:36;8.52;;;4.20;;
46897;SDS011;32646;50.958;6.258;2023-05-07T06:17:02;8.75;;;4.10;;
46897;SDS011;32646;50.958;6.258;2023-05-07T06:19:29;9.13;;;4.13;;
46897;SDS011;32646;50.958;6.258;2023-05-07T06:21:56;9.93;;;4.70;;
46897;SDS011;32646;50.958;6.258;2023-05-07T06:24:22;9.70;;;3.92;;
46897;SDS011;32646;50.958;6.258;2023-05-07T06:26:49;9.15;;;3.97;;
46897;SDS011;32646;50.958;6.258;2023-05-07T06:29:16;9.07;;;4.35;;
46897;SDS011;32646;50.958;6.258;2023-05-07T06:31:42;7.75;;;4.15;;
46897;SDS011;32646;50.958;6.258;2023-05-07T06:34:09;10.82;;;4.22;;
46897;SDS011;32646;50.958;6.258;2023-05-07T06:36:36;9.07;;;4.68;;
46897;SDS011;32646;50.958;6.258;2023-05-07T06:39:02;12.60;;;5.57;;
46897;SDS011;32646;50.958;6.258;2023-05-07T06:41:29;8.35;;;4.32;;
46897;SDS011;32646;50.958;6.258;2023-05-07T06:43:55;8.10;;;4.60;;
46897;SDS011;32646;50.958;6.258;2023-05-07T06:46:22;8.05;;;4.00;;
46897;SDS011;32646;50.958;6.258;2023-05-07T06:48:48;9.23;;;4.00;;
46897;SDS011;32646;50.958;6.258;2023-05-07T06:51:15;8.02;;;4.53;;
46897;SDS011;32646;50.958;6.258;2023-05-07T06:53:41;9.32;;;4.10;;
46897;SDS011;32646;50.958;6.258;2023-05-07T06:56:08;8.75;;;4.25;;
46897;SDS011;32646;50.958;6.258;2023-05-07T06:58:35;9.80;;;4.68;;
46897;SDS011;32646;50.958;6.258;2023-05-07T07:01:01;8.70;;;4.30;;
46897;SDS011;32646;50.958;6.258;2023-05-07T07:03:28;8.95;;;3.97;;
46897;SDS011;32646;50.958;6.258;2023-05-07T07:05:54;8.10;;;4.00;;
46897;SDS011;32646;50.958;6.258;2023-05-07T07:08:21;8.35;;;3.92;;
46897;SDS011;32646;50.958;6.258;2023-05-07T07:10:48;7.88;;;3.72;;
46897;SDS011;32646;50.958;6.258;2023-05-07T07:13:15;7.80;;;3.63;;
46897;SDS011;32646;50.958;6.258;2023-05-07T07:15:42;7.68;;;3.80;;
46897;SDS011;32646;50.958;6.258;2023-05-07T07:18:09;7.55;;;3.55;;
46897;SDS011;32646;50.958;6.258;2023-05-07T07:20:36;6.53;;;3.20;;
46897;SDS011;32646;50.958;6.258;2023-05-07T07:23:02;7.63;;;3.55;;
46897;SDS011;32646;50.958;6.258;2023-05-07T07:25:29;7.10;;;3.85;;
46897;SDS011;32646;50.958;6.258;2023-05-07T07:27:55;8.18;;;4.10;;
46897;SDS011;32646;50.958;6.258;2023-05-07T07:30:22;6.70;;;3.58;;
46897;SDS011;32646;50.958;6.258;2023-05-07T07:32:49;8.45;;;3.17;;
46897;SDS011;32646;50.958;6.258;2023-05-07T07:35:16;6.68;;;3.33;;
46897;SDS011;32646;50.958;6.258;2023-05-07T07:37:42;7.25;;;3.47;;
46897;SDS011;32646;50.958;6.258;2023-05-07T07:40:09;6.95;;;2.90;;
46897;SDS011;32646;50.958;6.258;2023-05-07T07:42:37;7.07;;;3.25;;
46897;SDS011;32646;50.958;6.258;2023-05-07T07:45:04;6.80;;;3.42;;
46897;SDS011;32646;50.958;6.258;2023-05-07T07:47:31;6.57;;;3.15;;
46897;SDS011;32646;50.958;6.258;2023-05-07T07:49:57;6.00;;;3.17;;
46897;SDS011;32646;50.958;6.258;2023-05-07T07:52:24;6.53;;;3.05;;
46897;SDS011;32646;50.958;6.258;2023-05-07T07:54:50;7.40;;;3.60;;
46897;SDS011;32646;50.958;6.258;2023-05-07T07:57:17;7.63;;;3.45;;
46897;SDS011;32646;50.958;6.258;2023-05-07T07:59:44;9.00;;;3.50;;
46897;SDS011;32646;50.958;6.258;2023-05-07T08:02:10;5.57;;;3.08;;
46897;SDS011;32646;50.958;6.258;2023-05-07T08:04:39;6.88;;;3.13;;
46897;SDS011;32646;50.958;6.258;2023-05-07T08:07:06;6.03;;;2.97;;
46897;SDS011;32646;50.958;6.258;2023-05-07T08:09:32;7.32;;;3.00;;
46897;SDS011;32646;50.958;6.258;2023-05-07T08:11:59;7.10;;;3.28;;
46897;SDS011;32646;50.958;6.258;2023-05-07T08:14:26;6.95;;;2.75;;
46897;SDS011;32646;50.958;6.258;2023-05-07T08:16:53;6.55;;;2.60;;
46897;SDS011;32646;50.958;6.258;2023-05-07T08:19:20;9.25;;;3.03;;
46897;SDS011;32646;50.958;6.258;2023-05-07T08:21:47;5.50;;;2.88;;
46897;SDS011;32646;50.958;6.258;2023-05-07T08:24:14;7.78;;;3.15;;
46897;SDS011;32646;50.958;6.258;2023-05-07T08:26:41;6.78;;;3.00;;
46897;SDS011;32646;50.958;6.258;2023-05-07T08:29:08;8.43;;;2.95;;
46897;SDS011;32646;50.958;6.258;2023-05-07T08:31:34;6.05;;;2.42;;
46897;SDS011;32646;50.958;6.258;2023-05-07T08:34:01;7.22;;;2.78;;
46897;SDS011;32646;50.958;6.258;2023-05-07T08:36:34;6.85;;;3.03;;
46897;SDS011;32646;50.958;6.258;2023-05-07T08:39:01;8.27;;;3.28;;
46897;SDS011;32646;50.958;6.258;2023-05-07T08:41:28;6.85;;;2.63;;
46897;SDS011;32646;50.958;6.258;2023-05-07T08:43:56;6.40;;;2.78;;
46897;SDS011;32646;50.958;6.258;2023-05-07T08:46:25;5.40;;;2.58;;
46897;SDS011;32646;50.958;6.258;2023-05-07T08:48:55;5.78;;;2.90;;
46897;SDS011;32646;50.958;6.258;2023-05-07T08:51:21;6.78;;;3.05;;
46897;SDS011;32646;50.958;6.258;2023-05-07T08:53:48;5.88;;;3.13;;
46897;SDS011;32646;50.958;6.258;2023-05-07T08:56:16;7.40;;;3.10;;
46897;SDS011;32646;50.958;6.258;2023-05-07T08:58:45;6.20;;;2.72;;
46897;SDS011;32646;50.958;6.258;2023-05-07T09:01:15;5.32;;;2.97;;
46897;SDS011;32646;50.958;6.258;2023-05-07T09:03:46;5.63;;;3.17;;
46897;SDS011;32646;50.958;6.258;2023-05-07T09:06:12;4.97;;;2.70;;
46897;SDS011;32646;50.958;6.258;2023-05-07T09:08:39;5.85;;;2.83;;
46897;SDS011;32646;50.958;6.258;2023-05-07T09:11:06;4.55;;;2.78;;
46897;SDS011;32646;50.958;6.258;2023-05-07T09:13:33;5.43;;;2.58;;
46897;SDS011;32646;50.958;6.258;2023-05-07T09:16:09;4.80;;;2.50;;
46897;SDS011;32646;50.958;6.258;2023-05-07T09:18:41;4.95;;;2.33;;
46897;SDS011;32646;50.958;6.258;2023-05-07T09:21:11;5.00;;;2.88;;
46897;SDS011;32646;50.958;6.258;2023-05-07T09:23:42;5.60;;;2.78;;
46897;SDS011;32646;50.958;6.258;2023-05-07T09:36:53;6.35;;;2.70;;
46897;SDS011;32646;50.958;6.258;2023-05-07T09:39:47;5.90;;;2.90;;
46897;SDS011;32646;50.958;6.258;2023-05-07T09:42:24;6.45;;;2.10;;
46897;SDS011;32646;50.958;6.258;2023-05-07T09:44:52;5.22;;;2.00;;
46897;SDS011;32646;50.958;6.258;2023-05-07T09:47:21;5.93;;;2.15;;
46897;SDS011;32646;50.958;6.258;2023-05-07T09:49:53;5.40;;;2.30;;
46897;SDS011;32646;50.958;6.258;2023-05-07T09:52:22;3.80;;;1.85;;
46897;SDS011;32646;50.958;6.258;2023-05-07T10:00:09;5.13;;;2.33;;
46897;SDS011;32646;50.958;6.258;2023-05-07T10:02:36;5.35;;;2.20;;
46897;SDS011;32646;50.958;6.258;2023-05-07T10:05:07;4.40;;;1.95;;
46897;SDS011;32646;50.958;6.258;2023-05-07T10:07:35;6.20;;;2.55;;
46897;SDS011;32646;50.958;6.258;2023-05-07T10:10:01;6.07;;;2.40;;
46897;SDS011;32646;50.958;6.258;2023-05-07T10:12:29;4.82;;;2.40;;
46897;SDS011;32646;50.958;6.258;2023-05-07T10:14:56;4.35;;;2.13;;
46897;SDS011;32646;50.958;6.258;2023-05-07T10:17:23;5.00;;;2.10;;
46897;SDS011;32646;50.958;6.258;2023-05-07T10:19:49;4.60;;;1.98;;
46897;SDS011;32646;50.958;6.258;2023-05-07T10:22:19;4.20;;;1.80;;
46897;SDS011;32646;50.958;6.258;2023-05-07T10:24:47;4.20;;;1.60;;
46897;SDS011;32646;50.958;6.258;2023-05-07T10:27:18;4.05;;;1.77;;
46897;SDS011;32646;50.958;6.258;2023-05-07T10:29:55;4.57;;;1.90;;
46897;SDS011;32646;50.958;6.258;2023-05-07T10:34:56;4.00;;;1.80;;
46897;SDS011;32646;50.958;6.258;2023-05-07T10:37:26;4.22;;;1.65;;
46897;SDS011;32646;50.958;6.258;2023-05-07T10:39:53;4.35;;;1.70;;
46897;SDS011;32646;50.958;6.258;2023-05-07T10:42:19;4.43;;;1.45;;
46897;SDS011;32646;50.958;6.258;2023-05-07T10:44:46;4.53;;;1.70;;
46897;SDS011;32646;50.958;6.258;2023-05-07T10:47:13;5.55;;;1.73;;
46897;SDS011;32646;50.958;6.258;2023-05-07T10:52:16;5.63;;;1.60;;
46897;SDS011;32646;50.958;6.258;2023-05-07T10:54:44;6.45;;;2.08;;
46897;SDS011;32646;50.958;6.258;2023-05-07T10:59:57;3.92;;;1.40;;
46897;SDS011;32646;50.958;6.258;2023-05-07T11:02:45;4.75;;;1.58;;
46897;SDS011;32646;50.958;6.258;2023-05-07T11:05:40;3.30;;;1.38;;
46897;SDS011;32646;50.958;6.258;2023-05-07T11:08:08;3.50;;;1.50;;
46897;SDS011;32646;50.958;6.258;2023-05-07T11:10:51;3.83;;;1.50;;
46897;SDS011;32646;50.958;6.258;2023-05-07T11:14:02;3.25;;;1.45;;
46897;SDS011;32646;50.958;6.258;2023-05-07T11:16:19;4.07;;;1.50;;
46897;SDS011;32646;50.958;6.258;2023-05-07T11:18:51;3.28;;;1.45;;
46897;SDS011;32646;50.958;6.258;2023-05-07T11:21:38;4.70;;;1.40;;
46897;SDS011;32646;50.958;6.258;2023-05-07T11:24:07;3.13;;;1.40;;
46897;SDS011;32646;50.958;6.258;2023-05-07T11:26:44;4.18;;;1.35;;
46897;SDS011;32646;50.958;6.258;2023-05-07T11:29:12;3.10;;;1.30;;
46897;SDS011;32646;50.958;6.258;2023-05-07T11:31:49;4.18;;;1.30;;
46897;SDS011;32646;50.958;6.258;2023-05-07T11:34:20;4.05;;;1.40;;
46897;SDS011;32646;50.958;6.258;2023-05-07T11:36:48;4.30;;;1.50;;
46897;SDS011;32646;50.958;6.258;2023-05-07T11:39:28;3.38;;;1.50;;
46897;SDS011;32646;50.958;6.258;2023-05-07T11:41:59;3.65;;;1.30;;
46897;SDS011;32646;50.958;6.258;2023-05-07T11:44:39;4.05;;;1.42;;
46897;SDS011;32646;50.958;6.258;2023-05-07T11:47:07;4.07;;;1.50;;
46897;SDS011;32646;50.958;6.258;2023-05-07T11:49:34;4.97;;;1.70;;
46897;SDS011;32646;50.958;6.258;2023-05-07T11:52:00;3.88;;;1.48;;
46897;SDS011;32646;50.958;6.258;2023-05-07T11:54:34;3.42;;;1.30;;
46897;SDS011;32646;50.958;6.258;2023-05-07T11:57:02;3.75;;;1.35;;
46897;SDS011;32646;50.958;6.258;2023-05-07T11:59:28;6.07;;;2.53;;
46897;SDS011;32646;50.958;6.258;2023-05-07T12:01:57;3.42;;;1.60;;
46897;SDS011;32646;50.958;6.258;2023-05-07T12:04:24;3.72;;;1.83;;
46897;SDS011;32646;50.958;6.258;2023-05-07T12:06:55;3.58;;;1.65;;
46897;SDS011;32646;50.958;6.258;2023-05-07T12:09:21;5.60;;;1.73;;
46897;SDS011;32646;50.958;6.258;2023-05-07T12:11:48;5.10;;;1.90;;
46897;SDS011;32646;50.958;6.258;2023-05-07T12:14:15;3.08;;;1.45;;
46897;SDS011;32646;50.958;6.258;2023-05-07T12:16:41;4.05;;;1.80;;
46897;SDS011;32646;50.958;6.258;2023-05-07T12:19:08;4.18;;;1.70;;
46897;SDS011;32646;50.958;6.258;2023-05-07T12:21:35;5.47;;;2.15;;
46897;SDS011;32646;50.958;6.258;2023-05-07T12:24:02;3.60;;;1.45;;
46897;SDS011;32646;50.958;6.258;2023-05-07T12:26:29;5.88;;;1.50;;
46897;SDS011;32646;50.958;6.258;2023-05-07T12:28:57;5.53;;;1.63;;
46897;SDS011;32646;50.958;6.258;2023-05-07T12:31:27;3.47;;;1.55;;
46897;SDS011;32646;50.958;6.258;2023-05-07T12:33:54;3.95;;;1.40;;
46897;SDS011;32646;50.958;6.258;2023-05-07T12:36:20;3.88;;;1.55;;
46897;SDS011;32646;50.958;6.258;2023-05-07T12:38:48;4.47;;;1.50;;
46897;SDS011;32646;50.958;6.258;2023-05-07T12:41:15;3.58;;;1.50;;
46897;SDS011;32646;50.958;6.258;2023-05-07T12:43:45;3.47;;;1.60;;
46897;SDS011;32646;50.958;6.258;2023-05-07T12:46:12;3.95;;;1.60;;
46897;SDS011;32646;50.958;6.258;2023-05-07T12:48:43;4.03;;;1.60;;
46897;SDS011;32646;50.958;6.258;2023-05-07T12:51:10;5.70;;;2.00;;
46897;SDS011;32646;50.958;6.258;2023-05-07T12:53:40;6.03;;;2.60;;
46897;SDS011;32646;50.958;6.258;2023-05-07T12:56:07;5.55;;;3.10;;
46897;SDS011;32646;50.958;6.258;2023-05-07T12:58:34;5.53;;;2.83;;
46897;SDS011;32646;50.958;6.258;2023-05-07T13:01:05;5.45;;;2.50;;
46897;SDS011;32646;50.958;6.258;2023-05-07T13:03:33;4.97;;;1.85;;
46897;SDS011;32646;50.958;6.258;2023-05-07T13:06:03;4.50;;;1.83;;
46897;SDS011;32646;50.958;6.258;2023-05-07T13:08:36;4.43;;;1.88;;
46897;SDS011;32646;50.958;6.258;2023-05-07T13:11:04;5.35;;;2.22;;
46897;SDS011;32646;50.958;6.258;2023-05-07T13:13:31;4.72;;;1.83;;
46897;SDS011;32646;50.958;6.258;2023-05-07T13:15:59;5.95;;;2.03;;
46897;SDS011;32646;50.958;6.258;2023-05-07T13:18:27;4.65;;;1.83;;
46897;SDS011;32646;50.958;6.258;2023-05-07T13:20:55;4.63;;;2.10;;
46897;SDS011;32646;50.958;6.258;2023-05-07T13:23:22;4.60;;;1.95;;
46897;SDS011;32646;50.958;6.258;2023-05-07T13:25:49;4.32;;;2.00;;
46897;SDS011;32646;50.958;6.258;2023-05-07T13:28:16;6.53;;;2.40;;
46897;SDS011;32646;50.958;6.258;2023-05-07T13:30:42;6.32;;;2.60;;
46897;SDS011;32646;50.958;6.258;2023-05-07T13:33:09;6.80;;;2.70;;
46897;SDS011;32646;50.958;6.258;2023-05-07T13:35:36;6.78;;;2.72;;
46897;SDS011;32646;50.958;6.258;2023-05-07T13:38:02;6.05;;;2.65;;
46897;SDS011;32646;50.958;6.258;2023-05-07T13:40:29;5.15;;;2.50;;
46897;SDS011;32646;50.958;6.258;2023-05-07T13:42:56;4.88;;;3.08;;
46897;SDS011;32646;50.958;6.258;2023-05-07T13:45:24;6.63;;;3.45;;
46897;SDS011;32646;50.958;6.258;2023-05-07T13:47:50;7.43;;;2.85;;
46897;SDS011;32646;50.958;6.258;2023-05-07T13:50:17;3.88;;;2.25;;
46897;SDS011;32646;50.958;6.258;2023-05-07T13:52:44;5.05;;;2.78;;
46897;SDS011;32646;50.958;6.258;2023-05-07T13:58:42;3.38;;;1.83;;
46897;SDS011;32646;50.958;6.258;2023-05-07T14:01:43;5.32;;;2.20;;
46897;SDS011;32646;50.958;6.258;2023-05-07T14:04:10;3.75;;;1.85;;
46897;SDS011;32646;50.958;6.258;2023-05-07T14:06:52;4.28;;;1.70;;
46897;SDS011;32646;50.958;6.258;2023-05-07T14:09:24;5.15;;;1.60;;
46897;SDS011;32646;50.958;6.258;2023-05-07T14:11:51;3.80;;;1.50;;
46897;SDS011;32646;50.958;6.258;2023-05-07T14:14:18;4.82;;;1.65;;
46897;SDS011;32646;50.958;6.258;2023-05-07T14:16:45;3.28;;;1.52;;
46897;SDS011;32646;50.958;6.258;2023-05-07T14:19:15;3.50;;;1.55;;
46897;SDS011;32646;50.958;6.258;2023-05-07T14:21:41;4.47;;;1.80;;
46897;SDS011;32646;50.958;6.258;2023-05-07T14:24:08;4.43;;;1.60;;
46897;SDS011;32646;50.958;6.258;2023-05-07T14:26:34;4.22;;;1.90;;
46897;SDS011;32646;50.958;6.258;2023-05-07T14:29:01;3.60;;;2.40;;
46897;SDS011;32646;50.958;6.258;2023-05-07T14:31:28;3.88;;;1.98;;
46897;SDS011;32646;50.958;6.258;2023-05-07T14:33:55;4.38;;;2.10;;
46897;SDS011;32646;50.958;6.258;2023-05-07T14:36:21;4.13;;;2.22;;
46897;SDS011;32646;50.958;6.258;2023-05-07T14:38:48;4.63;;;2.67;;
46897;SDS011;32646;50.958;6.258;2023-05-07T14:41:15;5.38;;;2.97;;
46897;SDS011;32646;50.958;6.258;2023-05-07T14:43:41;3.85;;;2.50;;
46897;SDS011;32646;50.958;6.258;2023-05-07T14:46:08;4.38;;;2.60;;
46897;SDS011;32646;50.958;6.258;2023-05-07T14:48:34;5.15;;;2.92;;
46897;SDS011;32646;50.958;6.258;2023-05-07T14:51:01;6.57;;;3.47;;
46897;SDS011;32646;50.958;6.258;2023-05-07T14:53:28;5.10;;;3.10;;
46897;SDS011;32646;50.958;6.258;2023-05-07T14:55:54;5.82;;;2.90;;
46897;SDS011;32646;50.958;6.258;2023-05-07T14:58:21;5.32;;;3.22;;
46897;SDS011;32646;50.958;6.258;2023-05-07T15:00:47;5.82;;;3.25;;
46897;SDS011;32646;50.958;6.258;2023-05-07T15:03:14;5.28;;;2.83;;
46897;SDS011;32646;50.958;6.258;2023-05-07T15:05:40;6.45;;;3.60;;
46897;SDS011;32646;50.958;6.258;2023-05-07T15:08:07;7.18;;;3.60;;
46897;SDS011;32646;50.958;6.258;2023-05-07T15:10:37;5.82;;;3.83;;
46897;SDS011;32646;50.958;6.258;2023-05-07T15:13:04;8.20;;;5.30;;